sensor_id;sensor_type;location;lat;lon;timestamp;temperature;humidity
2825;DHT22;1420;51.324;12.344;2022-10-03T00:00:08;10.40;99.90
2825;DHT22;1420;51.324;12.344;2022-10-03T00:08:53;10.40;99.90
2825;DHT22;1420;51.324;12.344;2022-10-03T00:14:19;10.40;99.90
2825;DHT22;1420;51.324;12.344;2022-10-03T00:16:51;10.40;99.90
2825;DHT22;1420;51.324;12.344;2022-10-03T00:19:19;10.40;99.90
2825;DHT22;1420;51.324;12.344;2022-10-03T00:21:52;10.50;99.90
2825;DHT22;1420;51.324;12.344;2022-10-03T00:24:40;10.50;99.90
2825;DHT22;1420;51.324;12.344;2022-10-03T00:27:15;10.50;99.90
2825;DHT22;1420;51.324;12.344;2022-10-03T00:29:49;10.50;99.90
2825;DHT22;1420;51.324;12.344;2022-10-03T00:32:35;10.60;99.90
2825;DHT22;1420;51.324;12.344;2022-10-03T00:35:10;10.60;99.90
2825;DHT22;1420;51.324;12.344;2022-10-03T00:37:32;10.40;99.90
2825;DHT22;1420;51.324;12.344;2022-10-03T00:42:50;10.40;99.90
2825;DHT22;1420;51.324;12.344;2022-10-03T00:45:35;10.50;99.90
2825;DHT22;1420;51.324;12.344;2022-10-03T00:48:03;10.40;99.90
2825;DHT22;1420;51.324;12.344;2022-10-03T00:50:32;10.30;99.90
2825;DHT22;1420;51.324;12.344;2022-10-03T00:53:08;10.30;99.90
2825;DHT22;1420;51.324;12.344;2022-10-03T00:56:46;10.40;99.90
2825;DHT22;1420;51.324;12.344;2022-10-03T00:58:27;10.40;99.90
2825;DHT22;1420;51.324;12.344;2022-10-03T01:00:50;10.30;99.90
2825;DHT22;1420;51.324;12.344;2022-10-03T01:03:26;10.20;99.90
2825;DHT22;1420;51.324;12.344;2022-10-03T01:08:44;10.20;99.90
2825;DHT22;1420;51.324;12.344;2022-10-03T01:11:12;10.10;99.90
2825;DHT22;1420;51.324;12.344;2022-10-03T01:13:45;10.10;99.90
2825;DHT22;1420;51.324;12.344;2022-10-03T01:16:13;10.10;99.90
2825;DHT22;1420;51.324;12.344;2022-10-03T01:21:28;10.10;99.90
2825;DHT22;1420;51.324;12.344;2022-10-03T01:24:02;10.10;99.90
2825;DHT22;1420;51.324;12.344;2022-10-03T01:26:51;10.20;99.90
2825;DHT22;1420;51.324;12.344;2022-10-03T01:29:17;10.20;99.90
2825;DHT22;1420;51.324;12.344;2022-10-03T01:31:55;10.20;99.90
2825;DHT22;1420;51.324;12.344;2022-10-03T01:34:26;10.20;99.90
2825;DHT22;1420;51.324;12.344;2022-10-03T01:36:59;10.20;99.90
2825;DHT22;1420;51.324;12.344;2022-10-03T01:39:33;10.20;99.90
2825;DHT22;1420;51.324;12.344;2022-10-03T01:42:11;10.10;99.90
2825;DHT22;1420;51.324;12.344;2022-10-03T01:45:20;10.10;99.90
2825;DHT22;1420;51.324;12.344;2022-10-03T01:47:37;10.10;99.90
2825;DHT22;1420;51.324;12.344;2022-10-03T01:50:11;10.00;99.90
2825;DHT22;1420;51.324;12.344;2022-10-03T01:52:38;10.10;99.90
2825;DHT22;1420;51.324;12.344;2022-10-03T01:58:18;10.10;99.90
2825;DHT22;1420;51.324;12.344;2022-10-03T02:00:24;10.10;99.90
2825;DHT22;1420;51.324;12.344;2022-10-03T02:03:05;10.10;99.90
2825;DHT22;1420;51.324;12.344;2022-10-03T02:05:58;10.20;99.90
2825;DHT22;1420;51.324;12.344;2022-10-03T02:08:26;10.30;99.90
2825;DHT22;1420;51.324;12.344;2022-10-03T02:10:57;10.30;99.90
2825;DHT22;1420;51.324;12.344;2022-10-03T02:13:24;10.40;99.90
2825;DHT22;1420;51.324;12.344;2022-10-03T02:16:03;10.40;99.90
2825;DHT22;1420;51.324;12.344;2022-10-03T02:18:38;10.40;99.90
2825;DHT22;1420;51.324;12.344;2022-10-03T02:21:23;10.40;99.90
2825;DHT22;1420;51.324;12.344;2022-10-03T02:29:59;10.50;99.90
2825;DHT22;1420;51.324;12.344;2022-10-03T02:32:31;10.50;99.90
2825;DHT22;1420;51.324;12.344;2022-10-03T02:35:04;10.50;99.90
2825;DHT22;1420;51.324;12.344;2022-10-03T02:40:13;10.60;99.90
2825;DHT22;1420;51.324;12.344;2022-10-03T02:42:52;10.60;99.90
2825;DHT22;1420;51.324;12.344;2022-10-03T02:45:25;10.60;99.90
2825;DHT22;1420;51.324;12.344;2022-10-03T02:48:01;10.60;99.90
2825;DHT22;1420;51.324;12.344;2022-10-03T02:50:35;10.60;99.90
2825;DHT22;1420;51.324;12.344;2022-10-03T02:53:11;10.60;99.90
2825;DHT22;1420;51.324;12.344;2022-10-03T02:58:58;10.50;99.90
2825;DHT22;1420;51.324;12.344;2022-10-03T03:01:40;10.50;99.90
2825;DHT22;1420;51.324;12.344;2022-10-03T03:05:17;10.50;99.90
2825;DHT22;1420;51.324;12.344;2022-10-03T03:06:56;10.40;99.90
2825;DHT22;1420;51.324;12.344;2022-10-03T03:14:52;10.40;99.90
2825;DHT22;1420;51.324;12.344;2022-10-03T03:17:27;10.40;99.90
2825;DHT22;1420;51.324;12.344;2022-10-03T03:22:47;10.60;99.90
2825;DHT22;1420;51.324;12.344;2022-10-03T03:25:23;10.70;99.90
2825;DHT22;1420;51.324;12.344;2022-10-03T03:30:42;10.60;99.90
2825;DHT22;1420;51.324;12.344;2022-10-03T03:33:11;10.60;99.90
2825;DHT22;1420;51.324;12.344;2022-10-03T03:36:00;10.70;99.90
2825;DHT22;1420;51.324;12.344;2022-10-03T03:38:30;10.60;99.90
2825;DHT22;1420;51.324;12.344;2022-10-03T03:41:04;10.50;99.90
2825;DHT22;1420;51.324;12.344;2022-10-03T03:43:42;10.40;99.90
2825;DHT22;1420;51.324;12.344;2022-10-03T03:46:09;10.40;99.90
2825;DHT22;1420;51.324;12.344;2022-10-03T03:54:08;10.30;1.00
2825;DHT22;1420;51.324;12.344;2022-10-03T03:56:40;10.30;99.90
2825;DHT22;1420;51.324;12.344;2022-10-03T03:59:46;10.30;1.00
2825;DHT22;1420;51.324;12.344;2022-10-03T04:04:50;10.30;99.90
2825;DHT22;1420;51.324;12.344;2022-10-03T04:07:33;10.20;99.90
2825;DHT22;1420;51.324;12.344;2022-10-03T04:10:10;10.20;99.90
2825;DHT22;1420;51.324;12.344;2022-10-03T04:13:10;10.20;99.90
2825;DHT22;1420;51.324;12.344;2022-10-03T04:15:28;10.30;99.90
2825;DHT22;1420;51.324;12.344;2022-10-03T04:18:26;10.20;99.90
2825;DHT22;1420;51.324;12.344;2022-10-03T04:20:54;10.30;99.90
2825;DHT22;1420;51.324;12.344;2022-10-03T04:23:32;10.20;99.90
2825;DHT22;1420;51.324;12.344;2022-10-03T04:26:18;10.30;99.90
2825;DHT22;1420;51.324;12.344;2022-10-03T04:31:24;10.20;99.90
2825;DHT22;1420;51.324;12.344;2022-10-03T04:33:56;10.30;99.90
2825;DHT22;1420;51.324;12.344;2022-10-03T04:36:30;10.20;99.90
2825;DHT22;1420;51.324;12.344;2022-10-03T04:40:05;10.20;99.90
2825;DHT22;1420;51.324;12.344;2022-10-03T04:41:41;10.20;99.90
2825;DHT22;1420;51.324;12.344;2022-10-03T04:44:26;10.30;99.90
2825;DHT22;1420;51.324;12.344;2022-10-03T04:46:57;10.20;99.90
2825;DHT22;1420;51.324;12.344;2022-10-03T04:49:30;10.20;99.90
2825;DHT22;1420;51.324;12.344;2022-10-03T04:51:59;10.30;99.90
2825;DHT22;1420;51.324;12.344;2022-10-03T04:54:31;10.20;99.90
2825;DHT22;1420;51.324;12.344;2022-10-03T04:57:03;10.20;99.90
2825;DHT22;1420;51.324;12.344;2022-10-03T04:59:33;10.20;99.90
2825;DHT22;1420;51.324;12.344;2022-10-03T05:02:17;10.20;99.90
2825;DHT22;1420;51.324;12.344;2022-10-03T05:04:50;10.20;99.90
2825;DHT22;1420;51.324;12.344;2022-10-03T05:07:19;10.10;99.90
2825;DHT22;1420;51.324;12.344;2022-10-03T05:09:53;10.00;99.90
2825;DHT22;1420;51.324;12.344;2022-10-03T05:12:40;10.00;99.90
2825;DHT22;1420;51.324;12.344;2022-10-03T05:15:27;10.10;99.90
2825;DHT22;1420;51.324;12.344;2022-10-03T05:18:10;10.10;99.90
2825;DHT22;1420;51.324;12.344;2022-10-03T05:20:59;10.10;99.90
2825;DHT22;1420;51.324;12.344;2022-10-03T05:24:18;10.10;99.90
2825;DHT22;1420;51.324;12.344;2022-10-03T05:26:33;10.10;99.90
2825;DHT22;1420;51.324;12.344;2022-10-03T05:29:02;10.00;99.90
2825;DHT22;1420;51.324;12.344;2022-10-03T05:31:33;10.10;99.90
2825;DHT22;1420;51.324;12.344;2022-10-03T05:34:18;10.10;99.90
2825;DHT22;1420;51.324;12.344;2022-10-03T05:36:59;10.20;99.90
2825;DHT22;1420;51.324;12.344;2022-10-03T05:39:27;10.20;99.90
2825;DHT22;1420;51.324;12.344;2022-10-03T05:44:41;10.20;99.90
2825;DHT22;1420;51.324;12.344;2022-10-03T05:47:12;10.30;99.90
2825;DHT22;1420;51.324;12.344;2022-10-03T05:49:46;10.40;99.90
2825;DHT22;1420;51.324;12.344;2022-10-03T05:52:18;10.40;99.90
2825;DHT22;1420;51.324;12.344;2022-10-03T05:58:21;10.50;99.90
2825;DHT22;1420;51.324;12.344;2022-10-03T06:00:38;10.40;99.90
2825;DHT22;1420;51.324;12.344;2022-10-03T06:03:22;10.50;99.90
2825;DHT22;1420;51.324;12.344;2022-10-03T06:05:53;10.50;99.90
2825;DHT22;1420;51.324;12.344;2022-10-03T06:08:44;10.60;99.90
2825;DHT22;1420;51.324;12.344;2022-10-03T06:11:20;10.60;99.90
2825;DHT22;1420;51.324;12.344;2022-10-03T06:15:15;10.70;99.90
2825;DHT22;1420;51.324;12.344;2022-10-03T06:19:47;10.70;99.90
2825;DHT22;1420;51.324;12.344;2022-10-03T06:22:37;10.80;99.90
2825;DHT22;1420;51.324;12.344;2022-10-03T06:25:18;11.10;99.90
2825;DHT22;1420;51.324;12.344;2022-10-03T06:27:54;11.00;99.90
2825;DHT22;1420;51.324;12.344;2022-10-03T06:39:10;11.30;99.90
2825;DHT22;1420;51.324;12.344;2022-10-03T06:41:45;11.40;99.90
2825;DHT22;1420;51.324;12.344;2022-10-03T06:44:26;11.50;99.90
2825;DHT22;1420;51.324;12.344;2022-10-03T06:47:11;11.50;99.90
2825;DHT22;1420;51.324;12.344;2022-10-03T06:50:04;11.60;99.90
2825;DHT22;1420;51.324;12.344;2022-10-03T06:52:46;11.60;99.90
2825;DHT22;1420;51.324;12.344;2022-10-03T06:55:59;11.70;99.90
2825;DHT22;1420;51.324;12.344;2022-10-03T06:58:34;11.80;99.90
2825;DHT22;1420;51.324;12.344;2022-10-03T07:01:13;11.80;99.90
2825;DHT22;1420;51.324;12.344;2022-10-03T07:04:17;11.90;99.90
2825;DHT22;1420;51.324;12.344;2022-10-03T07:09:27;12.10;99.90
2825;DHT22;1420;51.324;12.344;2022-10-03T07:12:12;12.10;99.90
2825;DHT22;1420;51.324;12.344;2022-10-03T07:15:10;12.10;99.90
2825;DHT22;1420;51.324;12.344;2022-10-03T07:17:40;12.20;99.90
2825;DHT22;1420;51.324;12.344;2022-10-03T07:25:58;12.20;99.90
2825;DHT22;1420;51.324;12.344;2022-10-03T07:31:37;13.00;99.90
2825;DHT22;1420;51.324;12.344;2022-10-03T07:39:27;13.20;99.90
2825;DHT22;1420;51.324;12.344;2022-10-03T07:41:59;12.90;99.90
2825;DHT22;1420;51.324;12.344;2022-10-03T07:44:32;12.80;99.90
2825;DHT22;1420;51.324;12.344;2022-10-03T07:52:34;12.60;99.90
2825;DHT22;1420;51.324;12.344;2022-10-03T07:55:46;12.50;99.90
2825;DHT22;1420;51.324;12.344;2022-10-03T07:58:19;12.60;99.90
2825;DHT22;1420;51.324;12.344;2022-10-03T08:00:58;12.60;99.90
2825;DHT22;1420;51.324;12.344;2022-10-03T08:09:50;12.60;99.90
2825;DHT22;1420;51.324;12.344;2022-10-03T08:11:44;12.60;99.90
2825;DHT22;1420;51.324;12.344;2022-10-03T08:14:22;12.70;99.90
2825;DHT22;1420;51.324;12.344;2022-10-03T08:16:54;12.70;99.90
2825;DHT22;1420;51.324;12.344;2022-10-03T08:19:27;12.80;99.90
2825;DHT22;1420;51.324;12.344;2022-10-03T08:22:04;12.70;99.90
2825;DHT22;1420;51.324;12.344;2022-10-03T08:27:32;12.90;99.90
2825;DHT22;1420;51.324;12.344;2022-10-03T08:30:05;12.90;99.90
2825;DHT22;1420;51.324;12.344;2022-10-03T08:32:43;13.20;99.90
2825;DHT22;1420;51.324;12.344;2022-10-03T08:38:06;13.60;99.90
2825;DHT22;1420;51.324;12.344;2022-10-03T08:40:58;13.90;99.90
2825;DHT22;1420;51.324;12.344;2022-10-03T08:46:04;13.70;1.00
2825;DHT22;1420;51.324;12.344;2022-10-03T08:51:49;13.50;1.00
2825;DHT22;1420;51.324;12.344;2022-10-03T08:54:27;13.30;1.00
2825;DHT22;1420;51.324;12.344;2022-10-03T08:57:02;13.70;1.00
2825;DHT22;1420;51.324;12.344;2022-10-03T09:02:25;13.80;1.00
2825;DHT22;1420;51.324;12.344;2022-10-03T09:07:40;13.60;1.00
2825;DHT22;1420;51.324;12.344;2022-10-03T09:10:21;13.60;1.00
2825;DHT22;1420;51.324;12.344;2022-10-03T09:15:42;14.10;1.00
2825;DHT22;1420;51.324;12.344;2022-10-03T09:18:38;14.10;47.60
2825;DHT22;1420;51.324;12.344;2022-10-03T09:21:22;14.00;40.60
2825;DHT22;1420;51.324;12.344;2022-10-03T09:24:14;14.00;41.00
2825;DHT22;1420;51.324;12.344;2022-10-03T09:27:11;13.90;6.70
2825;DHT22;1420;51.324;12.344;2022-10-03T09:30:14;13.60;1.00
2825;DHT22;1420;51.324;12.344;2022-10-03T09:32:31;14.10;90.00
2825;DHT22;1420;51.324;12.344;2022-10-03T09:35:21;14.00;90.60
2825;DHT22;1420;51.324;12.344;2022-10-03T09:40:31;14.80;99.90
2825;DHT22;1420;51.324;12.344;2022-10-03T09:42:55;14.40;99.90
2825;DHT22;1420;51.324;12.344;2022-10-03T09:48:23;14.40;99.90
2825;DHT22;1420;51.324;12.344;2022-10-03T09:50:52;14.40;99.90
2825;DHT22;1420;51.324;12.344;2022-10-03T09:56:13;14.30;99.90
2825;DHT22;1420;51.324;12.344;2022-10-03T10:01:31;14.60;99.90
2825;DHT22;1420;51.324;12.344;2022-10-03T10:04:16;14.90;99.90
2825;DHT22;1420;51.324;12.344;2022-10-03T10:09:55;15.40;99.90
2825;DHT22;1420;51.324;12.344;2022-10-03T10:18:17;14.60;99.90
2825;DHT22;1420;51.324;12.344;2022-10-03T10:23:40;15.80;99.90
2825;DHT22;1420;51.324;12.344;2022-10-03T10:26:22;16.20;99.90
2825;DHT22;1420;51.324;12.344;2022-10-03T10:31:31;16.80;99.90
2825;DHT22;1420;51.324;12.344;2022-10-03T10:39:53;16.00;99.90
2825;DHT22;1420;51.324;12.344;2022-10-03T10:48:00;16.20;99.90
2825;DHT22;1420;51.324;12.344;2022-10-03T10:56:25;16.30;99.90
2825;DHT22;1420;51.324;12.344;2022-10-03T10:59:12;16.10;99.90
2825;DHT22;1420;51.324;12.344;2022-10-03T11:01:44;16.00;99.90
2825;DHT22;1420;51.324;12.344;2022-10-03T11:07:03;15.90;99.90
2825;DHT22;1420;51.324;12.344;2022-10-03T11:09:33;15.90;99.90
2825;DHT22;1420;51.324;12.344;2022-10-03T11:23:24;16.90;99.90
2825;DHT22;1420;51.324;12.344;2022-10-03T11:31:40;15.90;99.90
2825;DHT22;1420;51.324;12.344;2022-10-03T11:37:10;16.10;99.90
2825;DHT22;1420;51.324;12.344;2022-10-03T11:39:41;16.10;99.90
2825;DHT22;1420;51.324;12.344;2022-10-03T11:42:18;16.00;99.90
2825;DHT22;1420;51.324;12.344;2022-10-03T11:45:00;16.00;99.90
2825;DHT22;1420;51.324;12.344;2022-10-03T11:47:48;15.80;99.90
2825;DHT22;1420;51.324;12.344;2022-10-03T11:50:31;15.80;99.90
2825;DHT22;1420;51.324;12.344;2022-10-03T11:53:06;15.90;99.90
2825;DHT22;1420;51.324;12.344;2022-10-03T11:58:14;15.70;99.90
2825;DHT22;1420;51.324;12.344;2022-10-03T12:00:38;15.60;99.90
2825;DHT22;1420;51.324;12.344;2022-10-03T12:03:12;15.30;99.90
2825;DHT22;1420;51.324;12.344;2022-10-03T12:05:51;15.20;99.90
2825;DHT22;1420;51.324;12.344;2022-10-03T12:08:31;14.90;99.90
2825;DHT22;1420;51.324;12.344;2022-10-03T12:11:11;14.80;99.90
2825;DHT22;1420;51.324;12.344;2022-10-03T12:13:40;15.20;99.90
2825;DHT22;1420;51.324;12.344;2022-10-03T12:16:05;15.10;99.90
2825;DHT22;1420;51.324;12.344;2022-10-03T12:21:39;15.50;99.90
2825;DHT22;1420;51.324;12.344;2022-10-03T12:24:23;15.60;99.90
2825;DHT22;1420;51.324;12.344;2022-10-03T12:26:55;15.60;99.90
2825;DHT22;1420;51.324;12.344;2022-10-03T12:29:20;15.70;99.90
2825;DHT22;1420;51.324;12.344;2022-10-03T12:31:58;15.70;99.90
2825;DHT22;1420;51.324;12.344;2022-10-03T12:34:32;15.80;99.90
2825;DHT22;1420;51.324;12.344;2022-10-03T12:37:55;15.80;99.90
2825;DHT22;1420;51.324;12.344;2022-10-03T12:40:36;15.80;99.90
2825;DHT22;1420;51.324;12.344;2022-10-03T12:43:01;15.80;99.90
2825;DHT22;1420;51.324;12.344;2022-10-03T12:45:35;16.00;99.90
2825;DHT22;1420;51.324;12.344;2022-10-03T12:48:06;15.80;99.90
2825;DHT22;1420;51.324;12.344;2022-10-03T12:53:42;15.80;99.90
2825;DHT22;1420;51.324;12.344;2022-10-03T12:58:52;15.90;99.90
2825;DHT22;1420;51.324;12.344;2022-10-03T13:01:34;16.00;99.90
2825;DHT22;1420;51.324;12.344;2022-10-03T13:04:10;16.20;99.90
2825;DHT22;1420;51.324;12.344;2022-10-03T13:06:37;16.20;99.90
2825;DHT22;1420;51.324;12.344;2022-10-03T13:14:27;16.10;99.90
2825;DHT22;1420;51.324;12.344;2022-10-03T13:17:02;16.20;99.90
2825;DHT22;1420;51.324;12.344;2022-10-03T13:19:27;16.10;99.90
2825;DHT22;1420;51.324;12.344;2022-10-03T13:21:59;16.20;99.90
2825;DHT22;1420;51.324;12.344;2022-10-03T13:24:34;16.30;99.90
2825;DHT22;1420;51.324;12.344;2022-10-03T13:27:23;16.30;99.90
2825;DHT22;1420;51.324;12.344;2022-10-03T13:29:48;16.40;99.90
2825;DHT22;1420;51.324;12.344;2022-10-03T13:32:23;16.50;99.90
2825;DHT22;1420;51.324;12.344;2022-10-03T13:40:06;16.40;99.90
2825;DHT22;1420;51.324;12.344;2022-10-03T13:42:39;16.40;99.90
2825;DHT22;1420;51.324;12.344;2022-10-03T13:45:12;16.30;99.90
2825;DHT22;1420;51.324;12.344;2022-10-03T13:47:42;16.20;99.90
2825;DHT22;1420;51.324;12.344;2022-10-03T13:50:28;16.10;99.90
2825;DHT22;1420;51.324;12.344;2022-10-03T13:52:59;16.20;99.90
2825;DHT22;1420;51.324;12.344;2022-10-03T13:55:30;16.10;99.90
2825;DHT22;1420;51.324;12.344;2022-10-03T13:58:00;16.20;99.90
2825;DHT22;1420;51.324;12.344;2022-10-03T14:00:24;16.10;99.90
2825;DHT22;1420;51.324;12.344;2022-10-03T14:03:18;16.00;99.90
2825;DHT22;1420;51.324;12.344;2022-10-03T14:06:02;15.90;99.90
2825;DHT22;1420;51.324;12.344;2022-10-03T14:08:34;15.70;99.90
2825;DHT22;1420;51.324;12.344;2022-10-03T14:11:07;15.60;99.90
2825;DHT22;1420;51.324;12.344;2022-10-03T14:16:21;15.10;99.90
2825;DHT22;1420;51.324;12.344;2022-10-03T14:19:30;15.00;99.90
2825;DHT22;1420;51.324;12.344;2022-10-03T14:24:47;15.00;99.90
2825;DHT22;1420;51.324;12.344;2022-10-03T14:27:31;14.90;99.90
2825;DHT22;1420;51.324;12.344;2022-10-03T14:30:01;15.00;99.90
2825;DHT22;1420;51.324;12.344;2022-10-03T14:32:38;14.90;99.90
2825;DHT22;1420;51.324;12.344;2022-10-03T14:35:15;15.00;99.90
2825;DHT22;1420;51.324;12.344;2022-10-03T14:37:41;15.00;99.90
2825;DHT22;1420;51.324;12.344;2022-10-03T14:40:17;15.10;99.90
2825;DHT22;1420;51.324;12.344;2022-10-03T14:42:48;15.10;99.90
2825;DHT22;1420;51.324;12.344;2022-10-03T14:45:14;15.20;99.90
2825;DHT22;1420;51.324;12.344;2022-10-03T14:47:40;15.20;99.90
2825;DHT22;1420;51.324;12.344;2022-10-03T14:50:15;15.40;99.90
2825;DHT22;1420;51.324;12.344;2022-10-03T14:52:43;15.30;99.90
2825;DHT22;1420;51.324;12.344;2022-10-03T14:55:16;15.40;99.90
2825;DHT22;1420;51.324;12.344;2022-10-03T14:57:45;15.50;99.90
2825;DHT22;1420;51.324;12.344;2022-10-03T15:02:51;15.60;99.90
2825;DHT22;1420;51.324;12.344;2022-10-03T15:05:21;15.70;99.90
2825;DHT22;1420;51.324;12.344;2022-10-03T15:07:47;15.60;99.90
2825;DHT22;1420;51.324;12.344;2022-10-03T15:10:15;15.50;99.90
2825;DHT22;1420;51.324;12.344;2022-10-03T15:12:42;15.40;99.90
2825;DHT22;1420;51.324;12.344;2022-10-03T15:15:17;15.40;99.90
2825;DHT22;1420;51.324;12.344;2022-10-03T15:17:47;15.50;99.90
2825;DHT22;1420;51.324;12.344;2022-10-03T15:20:12;15.40;99.90
2825;DHT22;1420;51.324;12.344;2022-10-03T15:22:39;15.40;99.90
2825;DHT22;1420;51.324;12.344;2022-10-03T15:25:10;15.50;99.90
2825;DHT22;1420;51.324;12.344;2022-10-03T15:27:35;15.50;99.90
2825;DHT22;1420;51.324;12.344;2022-10-03T15:30:03;15.50;99.90
2825;DHT22;1420;51.324;12.344;2022-10-03T15:32:34;15.50;99.90
2825;DHT22;1420;51.324;12.344;2022-10-03T15:35:00;15.50;99.90
2825;DHT22;1420;51.324;12.344;2022-10-03T15:37:29;15.50;99.90
2825;DHT22;1420;51.324;12.344;2022-10-03T15:39:57;15.50;99.90
2825;DHT22;1420;51.324;12.344;2022-10-03T15:42:23;15.60;99.90
2825;DHT22;1420;51.324;12.344;2022-10-03T15:44:59;15.50;99.90
2825;DHT22;1420;51.324;12.344;2022-10-03T15:47:28;15.60;99.90
2825;DHT22;1420;51.324;12.344;2022-10-03T15:50:02;15.40;99.90
2825;DHT22;1420;51.324;12.344;2022-10-03T15:52:43;15.40;99.90
2825;DHT22;1420;51.324;12.344;2022-10-03T15:55:35;15.40;99.90
2825;DHT22;1420;51.324;12.344;2022-10-03T15:58:01;15.30;99.90
2825;DHT22;1420;51.324;12.344;2022-10-03T16:00:29;15.30;99.90
2825;DHT22;1420;51.324;12.344;2022-10-03T16:03:18;15.20;99.90
2825;DHT22;1420;51.324;12.344;2022-10-03T16:06:06;15.20;99.90
2825;DHT22;1420;51.324;12.344;2022-10-03T16:08:29;15.10;99.90
2825;DHT22;1420;51.324;12.344;2022-10-03T16:10:58;15.10;99.90
2825;DHT22;1420;51.324;12.344;2022-10-03T16:14:00;15.00;99.90
2825;DHT22;1420;51.324;12.344;2022-10-03T16:16:11;15.00;99.90
2825;DHT22;1420;51.324;12.344;2022-10-03T16:18:46;15.00;99.90
2825;DHT22;1420;51.324;12.344;2022-10-03T16:21:17;14.90;99.90
2825;DHT22;1420;51.324;12.344;2022-10-03T16:23:42;14.90;99.90
2825;DHT22;1420;51.324;12.344;2022-10-03T16:26:13;14.90;99.90
2825;DHT22;1420;51.324;12.344;2022-10-03T16:28:42;14.80;99.90
2825;DHT22;1420;51.324;12.344;2022-10-03T16:31:17;14.90;99.90
2825;DHT22;1420;51.324;12.344;2022-10-03T16:33:45;14.80;99.90
2825;DHT22;1420;51.324;12.344;2022-10-03T16:36:15;14.80;99.90
2825;DHT22;1420;51.324;12.344;2022-10-03T16:38:39;14.80;99.90
2825;DHT22;1420;51.324;12.344;2022-10-03T16:41:11;14.80;99.90
2825;DHT22;1420;51.324;12.344;2022-10-03T16:43:32;14.70;99.90
2825;DHT22;1420;51.324;12.344;2022-10-03T16:46:00;14.70;99.90
2825;DHT22;1420;51.324;12.344;2022-10-03T16:48:27;14.70;99.90
2825;DHT22;1420;51.324;12.344;2022-10-03T16:50:59;14.60;99.90
2825;DHT22;1420;51.324;12.344;2022-10-03T16:53:27;14.60;99.90
2825;DHT22;1420;51.324;12.344;2022-10-03T16:55:54;14.60;99.90
2825;DHT22;1420;51.324;12.344;2022-10-03T16:58:24;14.60;99.90
2825;DHT22;1420;51.324;12.344;2022-10-03T17:00:54;14.60;99.90
2825;DHT22;1420;51.324;12.344;2022-10-03T17:03:20;14.30;99.90
2825;DHT22;1420;51.324;12.344;2022-10-03T17:05:47;14.20;99.90
2825;DHT22;1420;51.324;12.344;2022-10-03T17:08:16;14.00;99.90
2825;DHT22;1420;51.324;12.344;2022-10-03T17:10:43;14.00;99.90
2825;DHT22;1420;51.324;12.344;2022-10-03T17:13:12;13.90;99.90
2825;DHT22;1420;51.324;12.344;2022-10-03T17:15:57;13.90;99.90
2825;DHT22;1420;51.324;12.344;2022-10-03T17:18:24;13.80;99.90
2825;DHT22;1420;51.324;12.344;2022-10-03T17:20:52;13.80;99.90
2825;DHT22;1420;51.324;12.344;2022-10-03T17:23:32;13.90;99.90
2825;DHT22;1420;51.324;12.344;2022-10-03T17:26:03;13.80;99.90
2825;DHT22;1420;51.324;12.344;2022-10-03T17:28:36;13.90;99.90
2825;DHT22;1420;51.324;12.344;2022-10-03T17:31:03;13.90;99.90
2825;DHT22;1420;51.324;12.344;2022-10-03T17:33:33;13.90;99.90
2825;DHT22;1420;51.324;12.344;2022-10-03T17:36:26;13.90;99.90
2825;DHT22;1420;51.324;12.344;2022-10-03T17:41:32;14.00;99.90
2825;DHT22;1420;51.324;12.344;2022-10-03T17:44:52;13.90;99.90
2825;DHT22;1420;51.324;12.344;2022-10-03T17:47:03;13.90;99.90
2825;DHT22;1420;51.324;12.344;2022-10-03T17:49:39;13.90;99.90
2825;DHT22;1420;51.324;12.344;2022-10-03T17:52:04;13.90;99.90
2825;DHT22;1420;51.324;12.344;2022-10-03T17:54:32;13.90;99.90
2825;DHT22;1420;51.324;12.344;2022-10-03T17:57:03;13.90;99.90
2825;DHT22;1420;51.324;12.344;2022-10-03T17:59:31;13.80;99.90
2825;DHT22;1420;51.324;12.344;2022-10-03T18:02:02;13.70;99.90
2825;DHT22;1420;51.324;12.344;2022-10-03T18:04:29;13.70;99.90
2825;DHT22;1420;51.324;12.344;2022-10-03T18:06:57;13.60;99.90
2825;DHT22;1420;51.324;12.344;2022-10-03T18:09:27;13.60;99.90
2825;DHT22;1420;51.324;12.344;2022-10-03T18:11:54;13.50;99.90
2825;DHT22;1420;51.324;12.344;2022-10-03T18:15:00;13.40;99.90
2825;DHT22;1420;51.324;12.344;2022-10-03T18:17:13;13.30;99.90
2825;DHT22;1420;51.324;12.344;2022-10-03T18:19:54;13.40;99.90
2825;DHT22;1420;51.324;12.344;2022-10-03T18:22:20;13.40;99.90
2825;DHT22;1420;51.324;12.344;2022-10-03T18:25:11;13.40;99.90
2825;DHT22;1420;51.324;12.344;2022-10-03T18:27:43;13.30;99.90
2825;DHT22;1420;51.324;12.344;2022-10-03T18:30:18;13.30;99.90
2825;DHT22;1420;51.324;12.344;2022-10-03T18:32:44;13.30;99.90
2825;DHT22;1420;51.324;12.344;2022-10-03T18:35:16;13.40;99.90
2825;DHT22;1420;51.324;12.344;2022-10-03T18:37:59;13.40;99.90
2825;DHT22;1420;51.324;12.344;2022-10-03T18:40:27;13.40;99.90
2825;DHT22;1420;51.324;12.344;2022-10-03T18:42:53;13.40;99.90
2825;DHT22;1420;51.324;12.344;2022-10-03T18:45:27;13.40;99.90
2825;DHT22;1420;51.324;12.344;2022-10-03T18:47:53;13.40;99.90
2825;DHT22;1420;51.324;12.344;2022-10-03T18:50:21;13.40;99.90
2825;DHT22;1420;51.324;12.344;2022-10-03T18:52:49;13.40;99.90
2825;DHT22;1420;51.324;12.344;2022-10-03T18:55:16;13.50;99.90
2825;DHT22;1420;51.324;12.344;2022-10-03T18:57:48;13.50;99.90
2825;DHT22;1420;51.324;12.344;2022-10-03T19:00:19;13.40;99.90
2825;DHT22;1420;51.324;12.344;2022-10-03T19:02:52;13.50;99.90
2825;DHT22;1420;51.324;12.344;2022-10-03T19:05:21;13.40;99.90
2825;DHT22;1420;51.324;12.344;2022-10-03T19:07:53;13.50;99.90
2825;DHT22;1420;51.324;12.344;2022-10-03T19:10:27;13.40;99.90
2825;DHT22;1420;51.324;12.344;2022-10-03T19:13:14;13.40;99.90
2825;DHT22;1420;51.324;12.344;2022-10-03T19:15:42;13.30;99.90
2825;DHT22;1420;51.324;12.344;2022-10-03T19:20:40;13.50;99.90
2825;DHT22;1420;51.324;12.344;2022-10-03T19:23:12;13.40;99.90
2825;DHT22;1420;51.324;12.344;2022-10-03T19:25:41;13.30;99.90
2825;DHT22;1420;51.324;12.344;2022-10-03T19:28:13;13.40;99.90
2825;DHT22;1420;51.324;12.344;2022-10-03T19:30:39;13.40;99.90
2825;DHT22;1420;51.324;12.344;2022-10-03T19:33:11;13.50;99.90
2825;DHT22;1420;51.324;12.344;2022-10-03T19:35:36;13.40;99.90
2825;DHT22;1420;51.324;12.344;2022-10-03T19:38:23;13.50;99.90
2825;DHT22;1420;51.324;12.344;2022-10-03T19:40:54;13.40;99.90
2825;DHT22;1420;51.324;12.344;2022-10-03T19:43:28;13.40;99.90
2825;DHT22;1420;51.324;12.344;2022-10-03T19:45:59;13.50;99.90
2825;DHT22;1420;51.324;12.344;2022-10-03T19:48:18;13.50;99.90
2825;DHT22;1420;51.324;12.344;2022-10-03T19:50:45;13.50;99.90
2825;DHT22;1420;51.324;12.344;2022-10-03T19:53:15;13.50;99.90
2825;DHT22;1420;51.324;12.344;2022-10-03T19:55:41;13.60;99.90
2825;DHT22;1420;51.324;12.344;2022-10-03T19:58:13;13.60;99.90
2825;DHT22;1420;51.324;12.344;2022-10-03T20:00:38;13.50;99.90
2825;DHT22;1420;51.324;12.344;2022-10-03T20:03:17;13.50;99.90
2825;DHT22;1420;51.324;12.344;2022-10-03T20:05:56;13.40;99.90
2825;DHT22;1420;51.324;12.344;2022-10-03T20:08:32;13.40;99.90
2825;DHT22;1420;51.324;12.344;2022-10-03T20:11:05;13.40;99.90
2825;DHT22;1420;51.324;12.344;2022-10-03T20:13:39;13.40;99.90